sensor_id;sensor_type;location;lat;lon;timestamp;temperature;humidity
21039;DHT22;10678;51.002;4.786;2023-04-24T00:01:41;11.30;99.90
21039;DHT22;10678;51.002;4.786;2023-04-24T00:04:08;11.20;99.90
21039;DHT22;10678;51.002;4.786;2023-04-24T00:06:39;11.20;99.90
21039;DHT22;10678;51.002;4.786;2023-04-24T00:09:09;11.30;99.90
21039;DHT22;10678;51.002;4.786;2023-04-24T00:11:36;11.30;99.90
21039;DHT22;10678;51.002;4.786;2023-04-24T00:14:02;11.10;99.90
21039;DHT22;10678;51.002;4.786;2023-04-24T00:16:27;11.10;99.90
21039;DHT22;10678;51.002;4.786;2023-04-24T00:18:53;11.20;99.90
21039;DHT22;10678;51.002;4.786;2023-04-24T00:21:19;11.20;99.90
21039;DHT22;10678;51.002;4.786;2023-04-24T00:23:45;11.10;99.90
21039;DHT22;10678;51.002;4.786;2023-04-24T00:26:11;11.30;99.90
21039;DHT22;10678;51.002;4.786;2023-04-24T00:28:37;11.20;99.90
21039;DHT22;10678;51.002;4.786;2023-04-24T00:31:02;11.30;99.90
21039;DHT22;10678;51.002;4.786;2023-04-24T00:33:28;11.10;99.90
21039;DHT22;10678;51.002;4.786;2023-04-24T00:35:54;11.30;99.90
21039;DHT22;10678;51.002;4.786;2023-04-24T00:38:19;11.30;99.90
21039;DHT22;10678;51.002;4.786;2023-04-24T00:40:45;11.30;99.90
21039;DHT22;10678;51.002;4.786;2023-04-24T00:43:11;11.20;99.90
21039;DHT22;10678;51.002;4.786;2023-04-24T00:45:37;11.30;99.90
21039;DHT22;10678;51.002;4.786;2023-04-24T00:48:03;11.30;99.90
21039;DHT22;10678;51.002;4.786;2023-04-24T00:50:30;11.30;99.90
21039;DHT22;10678;51.002;4.786;2023-04-24T00:52:56;11.10;99.90
21039;DHT22;10678;51.002;4.786;2023-04-24T00:55:21;11.10;99.90
21039;DHT22;10678;51.002;4.786;2023-04-24T00:57:48;11.20;99.90
21039;DHT22;10678;51.002;4.786;2023-04-24T01:00:16;11.10;99.90
21039;DHT22;10678;51.002;4.786;2023-04-24T01:02:44;11.30;99.90
21039;DHT22;10678;51.002;4.786;2023-04-24T01:05:11;11.20;99.90
21039;DHT22;10678;51.002;4.786;2023-04-24T01:07:39;11.20;99.90
21039;DHT22;10678;51.002;4.786;2023-04-24T01:10:06;11.20;99.90
21039;DHT22;10678;51.002;4.786;2023-04-24T01:12:32;11.20;99.90
21039;DHT22;10678;51.002;4.786;2023-04-24T01:14:58;11.10;99.90
21039;DHT22;10678;51.002;4.786;2023-04-24T01:17:24;11.10;99.90
21039;DHT22;10678;51.002;4.786;2023-04-24T01:19:49;11.00;99.90
21039;DHT22;10678;51.002;4.786;2023-04-24T01:22:18;10.90;99.90
21039;DHT22;10678;51.002;4.786;2023-04-24T01:24:46;10.80;99.90
21039;DHT22;10678;51.002;4.786;2023-04-24T01:27:12;10.70;99.90
21039;DHT22;10678;51.002;4.786;2023-04-24T01:29:38;10.70;99.90
21039;DHT22;10678;51.002;4.786;2023-04-24T01:32:04;10.50;99.90
21039;DHT22;10678;51.002;4.786;2023-04-24T01:34:30;10.70;99.90
21039;DHT22;10678;51.002;4.786;2023-04-24T01:36:56;10.80;99.90
21039;DHT22;10678;51.002;4.786;2023-04-24T01:39:22;10.70;99.90
21039;DHT22;10678;51.002;4.786;2023-04-24T01:41:53;10.90;99.90
21039;DHT22;10678;51.002;4.786;2023-04-24T01:44:19;10.90;99.90
21039;DHT22;10678;51.002;4.786;2023-04-24T01:46:45;10.90;99.90
21039;DHT22;10678;51.002;4.786;2023-04-24T01:49:11;11.00;99.90
21039;DHT22;10678;51.002;4.786;2023-04-24T01:51:36;11.10;99.90
21039;DHT22;10678;51.002;4.786;2023-04-24T01:54:02;11.10;99.90
21039;DHT22;10678;51.002;4.786;2023-04-24T01:56:33;11.10;99.90
21039;DHT22;10678;51.002;4.786;2023-04-24T01:59:02;11.00;99.90
21039;DHT22;10678;51.002;4.786;2023-04-24T02:01:33;11.00;99.90
21039;DHT22;10678;51.002;4.786;2023-04-24T02:04:00;10.90;99.90
21039;DHT22;10678;51.002;4.786;2023-04-24T02:06:25;10.90;99.90
21039;DHT22;10678;51.002;4.786;2023-04-24T02:08:51;10.90;99.90
21039;DHT22;10678;51.002;4.786;2023-04-24T02:11:17;11.00;99.90
21039;DHT22;10678;51.002;4.786;2023-04-24T02:13:44;10.90;99.90
21039;DHT22;10678;51.002;4.786;2023-04-24T02:16:09;10.70;99.90
21039;DHT22;10678;51.002;4.786;2023-04-24T02:18:35;10.80;99.90
21039;DHT22;10678;51.002;4.786;2023-04-24T02:21:01;10.90;99.90
21039;DHT22;10678;51.002;4.786;2023-04-24T02:23:26;10.90;99.90
21039;DHT22;10678;51.002;4.786;2023-04-24T02:25:52;10.90;99.90
21039;DHT22;10678;51.002;4.786;2023-04-24T02:28:18;11.00;99.90
21039;DHT22;10678;51.002;4.786;2023-04-24T02:30:44;10.90;99.90
21039;DHT22;10678;51.002;4.786;2023-04-24T02:33:11;11.00;99.90
21039;DHT22;10678;51.002;4.786;2023-04-24T02:35:37;10.90;99.90
21039;DHT22;10678;51.002;4.786;2023-04-24T02:38:02;10.80;99.90
21039;DHT22;10678;51.002;4.786;2023-04-24T02:40:28;10.80;99.90
21039;DHT22;10678;51.002;4.786;2023-04-24T02:42:54;10.70;99.90
21039;DHT22;10678;51.002;4.786;2023-04-24T02:45:20;10.60;99.90
21039;DHT22;10678;51.002;4.786;2023-04-24T02:47:45;10.40;99.90
21039;DHT22;10678;51.002;4.786;2023-04-24T02:50:11;10.40;99.90
21039;DHT22;10678;51.002;4.786;2023-04-24T02:52:37;10.40;99.90
21039;DHT22;10678;51.002;4.786;2023-04-24T02:55:02;10.50;99.90
21039;DHT22;10678;51.002;4.786;2023-04-24T02:57:28;10.60;99.90
21039;DHT22;10678;51.002;4.786;2023-04-24T02:59:54;10.60;99.90
21039;DHT22;10678;51.002;4.786;2023-04-24T03:02:19;10.60;99.90
21039;DHT22;10678;51.002;4.786;2023-04-24T03:04:46;10.60;99.90
21039;DHT22;10678;51.002;4.786;2023-04-24T03:07:13;10.40;99.90
21039;DHT22;10678;51.002;4.786;2023-04-24T03:09:40;10.40;99.90
21039;DHT22;10678;51.002;4.786;2023-04-24T03:12:06;10.50;99.90
21039;DHT22;10678;51.002;4.786;2023-04-24T03:14:32;10.50;99.90
21039;DHT22;10678;51.002;4.786;2023-04-24T03:16:58;10.60;99.90
21039;DHT22;10678;51.002;4.786;2023-04-24T03:19:23;10.60;99.90
21039;DHT22;10678;51.002;4.786;2023-04-24T03:21:50;10.60;99.90
21039;DHT22;10678;51.002;4.786;2023-04-24T03:24:15;10.30;99.90
21039;DHT22;10678;51.002;4.786;2023-04-24T03:26:41;10.40;99.90
21039;DHT22;10678;51.002;4.786;2023-04-24T03:29:07;10.50;99.90
21039;DHT22;10678;51.002;4.786;2023-04-24T03:31:32;10.30;99.90
21039;DHT22;10678;51.002;4.786;2023-04-24T03:33:58;10.40;99.90
21039;DHT22;10678;51.002;4.786;2023-04-24T03:36:23;10.50;99.90
21039;DHT22;10678;51.002;4.786;2023-04-24T03:38:49;10.50;99.90
21039;DHT22;10678;51.002;4.786;2023-04-24T03:41:15;10.50;99.90
21039;DHT22;10678;51.002;4.786;2023-04-24T03:43:41;10.30;99.90
21039;DHT22;10678;51.002;4.786;2023-04-24T03:46:06;10.30;99.90
21039;DHT22;10678;51.002;4.786;2023-04-24T03:48:34;10.40;99.90
21039;DHT22;10678;51.002;4.786;2023-04-24T03:51:00;10.30;99.90
21039;DHT22;10678;51.002;4.786;2023-04-24T03:53:26;10.30;99.90
21039;DHT22;10678;51.002;4.786;2023-04-24T03:55:52;10.30;99.90
21039;DHT22;10678;51.002;4.786;2023-04-24T03:58:18;10.20;99.90
21039;DHT22;10678;51.002;4.786;2023-04-24T04:00:44;10.10;99.90
21039;DHT22;10678;51.002;4.786;2023-04-24T04:03:09;10.20;99.90
21039;DHT22;10678;51.002;4.786;2023-04-24T04:05:35;10.00;99.90
21039;DHT22;10678;51.002;4.786;2023-04-24T04:08:01;10.00;99.90
21039;DHT22;10678;51.002;4.786;2023-04-24T04:10:26;10.00;99.90
21039;DHT22;10678;51.002;4.786;2023-04-24T04:12:52;10.10;99.90
21039;DHT22;10678;51.002;4.786;2023-04-24T04:15:18;10.10;99.90
21039;DHT22;10678;51.002;4.786;2023-04-24T04:17:43;10.10;99.90
21039;DHT22;10678;51.002;4.786;2023-04-24T04:20:09;10.10;99.90
21039;DHT22;10678;51.002;4.786;2023-04-24T04:22:36;10.10;99.90
21039;DHT22;10678;51.002;4.786;2023-04-24T04:25:03;10.10;99.90
21039;DHT22;10678;51.002;4.786;2023-04-24T04:27:28;10.00;99.90
21039;DHT22;10678;51.002;4.786;2023-04-24T04:30:00;10.00;99.90
21039;DHT22;10678;51.002;4.786;2023-04-24T04:32:33;10.00;99.90
21039;DHT22;10678;51.002;4.786;2023-04-24T04:35:00;10.00;99.90
21039;DHT22;10678;51.002;4.786;2023-04-24T04:37:31;10.10;99.90
21039;DHT22;10678;51.002;4.786;2023-04-24T04:39:58;10.00;99.90
21039;DHT22;10678;51.002;4.786;2023-04-24T04:42:25;10.00;99.90
21039;DHT22;10678;51.002;4.786;2023-04-24T04:44:52;10.10;99.90
21039;DHT22;10678;51.002;4.786;2023-04-24T04:47:18;10.00;99.90
21039;DHT22;10678;51.002;4.786;2023-04-24T04:49:45;10.00;99.90
21039;DHT22;10678;51.002;4.786;2023-04-24T04:52:11;9.90;99.90
21039;DHT22;10678;51.002;4.786;2023-04-24T04:54:36;10.00;99.90
21039;DHT22;10678;51.002;4.786;2023-04-24T04:57:02;10.00;99.90
21039;DHT22;10678;51.002;4.786;2023-04-24T04:59:29;10.00;99.90
21039;DHT22;10678;51.002;4.786;2023-04-24T05:01:54;9.80;99.90
21039;DHT22;10678;51.002;4.786;2023-04-24T05:04:20;9.80;99.90
21039;DHT22;10678;51.002;4.786;2023-04-24T05:06:45;9.90;99.90
21039;DHT22;10678;51.002;4.786;2023-04-24T05:09:12;9.80;99.90
21039;DHT22;10678;51.002;4.786;2023-04-24T05:11:38;9.80;99.90
21039;DHT22;10678;51.002;4.786;2023-04-24T05:14:03;9.70;99.90
21039;DHT22;10678;51.002;4.786;2023-04-24T05:16:29;9.60;99.90
21039;DHT22;10678;51.002;4.786;2023-04-24T05:18:56;9.50;99.90
21039;DHT22;10678;51.002;4.786;2023-04-24T05:21:21;9.60;99.90
21039;DHT22;10678;51.002;4.786;2023-04-24T05:23:47;9.60;99.90
21039;DHT22;10678;51.002;4.786;2023-04-24T05:26:13;9.60;99.90
21039;DHT22;10678;51.002;4.786;2023-04-24T05:28:39;9.60;99.90
21039;DHT22;10678;51.002;4.786;2023-04-24T05:31:06;9.60;99.90
21039;DHT22;10678;51.002;4.786;2023-04-24T05:33:31;9.60;99.90
21039;DHT22;10678;51.002;4.786;2023-04-24T05:35:57;9.60;99.90
21039;DHT22;10678;51.002;4.786;2023-04-24T05:38:23;9.60;99.90
21039;DHT22;10678;51.002;4.786;2023-04-24T05:40:48;9.60;99.90
21039;DHT22;10678;51.002;4.786;2023-04-24T05:43:14;9.60;99.90
21039;DHT22;10678;51.002;4.786;2023-04-24T05:45:40;9.60;99.90
21039;DHT22;10678;51.002;4.786;2023-04-24T05:48:05;9.60;99.90
21039;DHT22;10678;51.002;4.786;2023-04-24T05:50:31;9.60;99.90
21039;DHT22;10678;51.002;4.786;2023-04-24T05:52:57;9.60;99.90
21039;DHT22;10678;51.002;4.786;2023-04-24T05:55:27;9.60;99.90
21039;DHT22;10678;51.002;4.786;2023-04-24T05:57:53;9.60;99.90
21039;DHT22;10678;51.002;4.786;2023-04-24T06:00:19;9.50;99.90
21039;DHT22;10678;51.002;4.786;2023-04-24T06:02:46;9.40;99.90
21039;DHT22;10678;51.002;4.786;2023-04-24T06:05:11;9.50;99.90
21039;DHT22;10678;51.002;4.786;2023-04-24T06:07:37;9.60;99.90
21039;DHT22;10678;51.002;4.786;2023-04-24T06:10:03;9.50;99.90
21039;DHT22;10678;51.002;4.786;2023-04-24T06:12:29;9.50;99.90
21039;DHT22;10678;51.002;4.786;2023-04-24T06:14:55;9.60;99.90
21039;DHT22;10678;51.002;4.786;2023-04-24T06:17:23;9.70;99.90
21039;DHT22;10678;51.002;4.786;2023-04-24T06:19:48;9.70;99.90
21039;DHT22;10678;51.002;4.786;2023-04-24T06:22:14;9.80;99.90
21039;DHT22;10678;51.002;4.786;2023-04-24T06:24:40;9.90;99.90
21039;DHT22;10678;51.002;4.786;2023-04-24T06:27:06;9.90;99.90
21039;DHT22;10678;51.002;4.786;2023-04-24T06:29:33;9.90;99.90
21039;DHT22;10678;51.002;4.786;2023-04-24T06:31:59;10.10;99.90
21039;DHT22;10678;51.002;4.786;2023-04-24T06:34:24;10.10;99.90
21039;DHT22;10678;51.002;4.786;2023-04-24T06:36:50;10.00;99.90
21039;DHT22;10678;51.002;4.786;2023-04-24T06:39:16;10.00;99.90
21039;DHT22;10678;51.002;4.786;2023-04-24T06:41:41;10.10;99.90
21039;DHT22;10678;51.002;4.786;2023-04-24T06:44:07;10.10;99.90
21039;DHT22;10678;51.002;4.786;2023-04-24T06:46:33;10.20;99.90
21039;DHT22;10678;51.002;4.786;2023-04-24T06:48:58;10.30;99.90
21039;DHT22;10678;51.002;4.786;2023-04-24T06:51:25;10.30;99.90
21039;DHT22;10678;51.002;4.786;2023-04-24T06:53:54;10.40;99.90
21039;DHT22;10678;51.002;4.786;2023-04-24T06:56:21;10.30;99.90
21039;DHT22;10678;51.002;4.786;2023-04-24T06:58:47;10.30;99.90
21039;DHT22;10678;51.002;4.786;2023-04-24T07:01:13;10.20;99.90
21039;DHT22;10678;51.002;4.786;2023-04-24T07:03:39;10.20;99.90
21039;DHT22;10678;51.002;4.786;2023-04-24T07:06:05;10.10;99.90
21039;DHT22;10678;51.002;4.786;2023-04-24T07:08:31;10.00;99.90
21039;DHT22;10678;51.002;4.786;2023-04-24T07:10:57;10.20;99.90
21039;DHT22;10678;51.002;4.786;2023-04-24T07:13:23;10.10;99.90
21039;DHT22;10678;51.002;4.786;2023-04-24T07:15:49;9.90;99.90
21039;DHT22;10678;51.002;4.786;2023-04-24T07:18:20;10.10;99.90
21039;DHT22;10678;51.002;4.786;2023-04-24T07:20:45;10.20;99.90
21039;DHT22;10678;51.002;4.786;2023-04-24T07:23:11;10.20;99.90
21039;DHT22;10678;51.002;4.786;2023-04-24T07:25:36;10.20;99.90
21039;DHT22;10678;51.002;4.786;2023-04-24T07:28:03;10.10;99.90
21039;DHT22;10678;51.002;4.786;2023-04-24T07:30:30;10.10;99.90
21039;DHT22;10678;51.002;4.786;2023-04-24T07:32:58;10.20;99.90
21039;DHT22;10678;51.002;4.786;2023-04-24T07:35:24;10.10;99.90
21039;DHT22;10678;51.002;4.786;2023-04-24T07:37:52;10.10;99.90
21039;DHT22;10678;51.002;4.786;2023-04-24T07:40:18;10.10;99.90
21039;DHT22;10678;51.002;4.786;2023-04-24T07:42:44;10.10;99.90
21039;DHT22;10678;51.002;4.786;2023-04-24T07:45:09;10.20;99.90
21039;DHT22;10678;51.002;4.786;2023-04-24T07:47:35;10.50;99.90
21039;DHT22;10678;51.002;4.786;2023-04-24T07:50:03;10.70;99.90
21039;DHT22;10678;51.002;4.786;2023-04-24T07:52:29;10.90;99.90
21039;DHT22;10678;51.002;4.786;2023-04-24T07:54:55;11.30;99.90
21039;DHT22;10678;51.002;4.786;2023-04-24T07:57:24;11.60;99.90
21039;DHT22;10678;51.002;4.786;2023-04-24T07:59:50;11.50;99.90
21039;DHT22;10678;51.002;4.786;2023-04-24T08:02:16;11.60;99.90
21039;DHT22;10678;51.002;4.786;2023-04-24T08:04:42;11.60;99.90
21039;DHT22;10678;51.002;4.786;2023-04-24T08:07:07;11.70;99.90
21039;DHT22;10678;51.002;4.786;2023-04-24T08:09:33;11.60;99.90
21039;DHT22;10678;51.002;4.786;2023-04-24T08:11:59;11.70;99.90
21039;DHT22;10678;51.002;4.786;2023-04-24T08:14:25;11.80;99.90
21039;DHT22;10678;51.002;4.786;2023-04-24T08:16:53;12.00;99.90
21039;DHT22;10678;51.002;4.786;2023-04-24T08:19:19;12.00;99.90
21039;DHT22;10678;51.002;4.786;2023-04-24T08:21:45;11.90;99.90
21039;DHT22;10678;51.002;4.786;2023-04-24T08:24:10;11.80;99.90
21039;DHT22;10678;51.002;4.786;2023-04-24T08:26:36;11.50;99.90
21039;DHT22;10678;51.002;4.786;2023-04-24T08:29:01;11.30;99.90
21039;DHT22;10678;51.002;4.786;2023-04-24T08:31:27;11.30;99.90
21039;DHT22;10678;51.002;4.786;2023-04-24T08:33:53;11.60;99.90
21039;DHT22;10678;51.002;4.786;2023-04-24T08:36:18;11.80;99.90
21039;DHT22;10678;51.002;4.786;2023-04-24T08:38:44;13.40;99.90
21039;DHT22;10678;51.002;4.786;2023-04-24T08:41:11;14.60;99.90
21039;DHT22;10678;51.002;4.786;2023-04-24T08:43:40;15.20;99.90
21039;DHT22;10678;51.002;4.786;2023-04-24T08:46:06;15.70;99.90
21039;DHT22;10678;51.002;4.786;2023-04-24T08:48:32;15.40;99.90
21039;DHT22;10678;51.002;4.786;2023-04-24T08:50:59;15.30;99.90
21039;DHT22;10678;51.002;4.786;2023-04-24T08:53:25;15.00;99.90
21039;DHT22;10678;51.002;4.786;2023-04-24T08:55:52;15.00;99.90
21039;DHT22;10678;51.002;4.786;2023-04-24T08:58:19;14.70;99.90
21039;DHT22;10678;51.002;4.786;2023-04-24T09:00:45;15.40;99.90
21039;DHT22;10678;51.002;4.786;2023-04-24T09:03:16;15.50;99.90
21039;DHT22;10678;51.002;4.786;2023-04-24T09:05:47;15.70;99.90
21039;DHT22;10678;51.002;4.786;2023-04-24T09:08:13;18.20;99.90
21039;DHT22;10678;51.002;4.786;2023-04-24T09:10:40;18.30;99.90
21039;DHT22;10678;51.002;4.786;2023-04-24T09:13:06;17.30;99.90
21039;DHT22;10678;51.002;4.786;2023-04-24T09:15:34;16.20;99.90
21039;DHT22;10678;51.002;4.786;2023-04-24T09:18:00;15.30;99.90
21039;DHT22;10678;51.002;4.786;2023-04-24T09:20:26;14.40;99.90
21039;DHT22;10678;51.002;4.786;2023-04-24T09:22:54;13.90;99.90
21039;DHT22;10678;51.002;4.786;2023-04-24T09:25:21;13.40;99.90
21039;DHT22;10678;51.002;4.786;2023-04-24T09:27:47;13.10;99.90
21039;DHT22;10678;51.002;4.786;2023-04-24T09:30:13;13.10;99.90
21039;DHT22;10678;51.002;4.786;2023-04-24T09:32:39;13.30;99.90
21039;DHT22;10678;51.002;4.786;2023-04-24T09:37:37;16.90;99.90
21039;DHT22;10678;51.002;4.786;2023-04-24T09:40:08;16.60;99.90
21039;DHT22;10678;51.002;4.786;2023-04-24T09:42:34;16.20;99.90
21039;DHT22;10678;51.002;4.786;2023-04-24T09:44:59;15.80;99.90
21039;DHT22;10678;51.002;4.786;2023-04-24T09:47:25;15.20;99.90
21039;DHT22;10678;51.002;4.786;2023-04-24T09:49:50;15.10;99.90
21039;DHT22;10678;51.002;4.786;2023-04-24T09:52:22;15.50;99.90
21039;DHT22;10678;51.002;4.786;2023-04-24T09:54:53;17.00;99.90
21039;DHT22;10678;51.002;4.786;2023-04-24T09:57:20;20.90;99.90
21039;DHT22;10678;51.002;4.786;2023-04-24T09:59:46;21.70;99.90
21039;DHT22;10678;51.002;4.786;2023-04-24T10:02:18;21.40;99.90
21039;DHT22;10678;51.002;4.786;2023-04-24T10:04:54;20.00;99.90
21039;DHT22;10678;51.002;4.786;2023-04-24T10:07:21;18.90;99.90
21039;DHT22;10678;51.002;4.786;2023-04-24T10:09:46;17.50;99.90
21039;DHT22;10678;51.002;4.786;2023-04-24T10:12:13;16.30;99.90
21039;DHT22;10678;51.002;4.786;2023-04-24T10:14:40;15.50;99.90
21039;DHT22;10678;51.002;4.786;2023-04-24T10:17:06;14.90;99.90
21039;DHT22;10678;51.002;4.786;2023-04-24T10:19:32;16.20;99.90
21039;DHT22;10678;51.002;4.786;2023-04-24T10:21:59;17.60;99.90
21039;DHT22;10678;51.002;4.786;2023-04-24T10:24:26;18.40;99.90
21039;DHT22;10678;51.002;4.786;2023-04-24T10:26:52;17.40;99.90
21039;DHT22;10678;51.002;4.786;2023-04-24T10:29:18;16.50;99.90
21039;DHT22;10678;51.002;4.786;2023-04-24T10:31:44;15.40;99.90
21039;DHT22;10678;51.002;4.786;2023-04-24T10:34:15;14.50;99.90
21039;DHT22;10678;51.002;4.786;2023-04-24T10:36:51;14.10;99.90
21039;DHT22;10678;51.002;4.786;2023-04-24T10:39:18;13.90;99.90
21039;DHT22;10678;51.002;4.786;2023-04-24T10:41:44;13.90;99.90
21039;DHT22;10678;51.002;4.786;2023-04-24T10:44:14;14.10;99.90
21039;DHT22;10678;51.002;4.786;2023-04-24T10:46:44;14.50;99.90
21039;DHT22;10678;51.002;4.786;2023-04-24T10:49:09;15.10;99.90
21039;DHT22;10678;51.002;4.786;2023-04-24T10:54:28;15.40;99.90
21039;DHT22;10678;51.002;4.786;2023-04-24T11:00:09;14.80;99.90
21039;DHT22;10678;51.002;4.786;2023-04-24T11:02:37;14.70;99.90
21039;DHT22;10678;51.002;4.786;2023-04-24T11:05:04;14.60;99.90
21039;DHT22;10678;51.002;4.786;2023-04-24T11:07:30;14.60;99.90
21039;DHT22;10678;51.002;4.786;2023-04-24T11:10:27;14.60;99.90
21039;DHT22;10678;51.002;4.786;2023-04-24T11:12:53;14.70;99.90
21039;DHT22;10678;51.002;4.786;2023-04-24T11:15:19;15.00;99.90
21039;DHT22;10678;51.002;4.786;2023-04-24T11:17:45;15.50;99.90
21039;DHT22;10678;51.002;4.786;2023-04-24T11:20:15;17.40;99.90
21039;DHT22;10678;51.002;4.786;2023-04-24T11:22:41;19.10;99.90
21039;DHT22;10678;51.002;4.786;2023-04-24T11:25:08;19.30;99.90
21039;DHT22;10678;51.002;4.786;2023-04-24T11:27:44;18.70;99.90
21039;DHT22;10678;51.002;4.786;2023-04-24T11:30:11;20.50;99.90
21039;DHT22;10678;51.002;4.786;2023-04-24T11:32:42;21.80;99.90
21039;DHT22;10678;51.002;4.786;2023-04-24T11:35:16;22.30;99.90
21039;DHT22;10678;51.002;4.786;2023-04-24T11:37:44;21.20;99.90
21039;DHT22;10678;51.002;4.786;2023-04-24T11:40:15;19.90;99.90
21039;DHT22;10678;51.002;4.786;2023-04-24T11:42:43;18.90;99.90
21039;DHT22;10678;51.002;4.786;2023-04-24T11:45:11;17.70;99.90
21039;DHT22;10678;51.002;4.786;2023-04-24T11:47:37;16.90;99.90
21039;DHT22;10678;51.002;4.786;2023-04-24T11:50:06;16.30;99.90
21039;DHT22;10678;51.002;4.786;2023-04-24T11:52:32;16.00;99.90
21039;DHT22;10678;51.002;4.786;2023-04-24T11:54:59;15.50;99.90
21039;DHT22;10678;51.002;4.786;2023-04-24T11:57:25;15.10;99.90
21039;DHT22;10678;51.002;4.786;2023-04-24T11:59:59;15.00;99.90
21039;DHT22;10678;51.002;4.786;2023-04-24T12:02:26;15.10;99.90
21039;DHT22;10678;51.002;4.786;2023-04-24T12:04:55;15.00;99.90
21039;DHT22;10678;51.002;4.786;2023-04-24T12:07:22;15.10;99.90
21039;DHT22;10678;51.002;4.786;2023-04-24T12:09:55;15.10;99.90
21039;DHT22;10678;51.002;4.786;2023-04-24T12:12:20;15.00;99.90
21039;DHT22;10678;51.002;4.786;2023-04-24T12:14:53;14.70;99.90
21039;DHT22;10678;51.002;4.786;2023-04-24T12:17:31;14.60;99.90
21039;DHT22;10678;51.002;4.786;2023-04-24T12:20:07;14.90;99.90
21039;DHT22;10678;51.002;4.786;2023-04-24T12:22:53;15.30;99.90
21039;DHT22;10678;51.002;4.786;2023-04-24T12:25:21;15.20;99.90
21039;DHT22;10678;51.002;4.786;2023-04-24T12:27:53;15.00;99.90
21039;DHT22;10678;51.002;4.786;2023-04-24T12:30:19;15.20;99.90
21039;DHT22;10678;51.002;4.786;2023-04-24T12:32:47;15.10;99.90
21039;DHT22;10678;51.002;4.786;2023-04-24T12:35:13;15.00;99.90
21039;DHT22;10678;51.002;4.786;2023-04-24T12:37:42;14.80;99.90
21039;DHT22;10678;51.002;4.786;2023-04-24T12:40:10;15.40;99.90
21039;DHT22;10678;51.002;4.786;2023-04-24T12:42:45;16.10;99.90
21039;DHT22;10678;51.002;4.786;2023-04-24T12:45:12;16.40;99.90
21039;DHT22;10678;51.002;4.786;2023-04-24T12:47:38;16.60;99.90
21039;DHT22;10678;51.002;4.786;2023-04-24T12:50:05;16.90;99.90
21039;DHT22;10678;51.002;4.786;2023-04-24T12:52:31;17.90;99.90
21039;DHT22;10678;51.002;4.786;2023-04-24T12:54:58;18.00;99.90
21039;DHT22;10678;51.002;4.786;2023-04-24T12:57:24;17.60;99.90
21039;DHT22;10678;51.002;4.786;2023-04-24T12:59:50;17.20;99.90
21039;DHT22;10678;51.002;4.786;2023-04-24T13:02:16;16.40;99.90
21039;DHT22;10678;51.002;4.786;2023-04-24T13:04:46;16.30;99.90
21039;DHT22;10678;51.002;4.786;2023-04-24T13:07:13;17.00;99.90
21039;DHT22;10678;51.002;4.786;2023-04-24T13:09:39;18.00;99.90
21039;DHT22;10678;51.002;4.786;2023-04-24T13:12:05;18.00;99.90
21039;DHT22;10678;51.002;4.786;2023-04-24T13:14:31;17.70;99.90
21039;DHT22;10678;51.002;4.786;2023-04-24T13:16:57;17.80;99.90
21039;DHT22;10678;51.002;4.786;2023-04-24T13:19:26;19.40;99.90
21039;DHT22;10678;51.002;4.786;2023-04-24T13:21:54;20.70;99.90
21039;DHT22;10678;51.002;4.786;2023-04-24T13:24:20;20.50;99.90
21039;DHT22;10678;51.002;4.786;2023-04-24T13:26:46;20.90;99.90
21039;DHT22;10678;51.002;4.786;2023-04-24T13:29:11;21.50;99.90
21039;DHT22;10678;51.002;4.786;2023-04-24T13:31:37;22.60;98.60
21039;DHT22;10678;51.002;4.786;2023-04-24T13:34:03;23.60;94.90
21039;DHT22;10678;51.002;4.786;2023-04-24T13:36:29;24.50;92.40
21039;DHT22;10678;51.002;4.786;2023-04-24T13:38:55;23.70;91.50
21039;DHT22;10678;51.002;4.786;2023-04-24T13:41:21;22.90;93.00
21039;DHT22;10678;51.002;4.786;2023-04-24T13:43:47;23.80;91.50
21039;DHT22;10678;51.002;4.786;2023-04-24T13:46:12;24.10;90.50
21039;DHT22;10678;51.002;4.786;2023-04-24T13:48:38;22.90;89.10
21039;DHT22;10678;51.002;4.786;2023-04-24T13:51:04;21.00;92.80
21039;DHT22;10678;51.002;4.786;2023-04-24T13:53:29;20.00;95.30
21039;DHT22;10678;51.002;4.786;2023-04-24T13:55:55;19.20;97.10
21039;DHT22;10678;51.002;4.786;2023-04-24T13:58:21;19.00;98.40
21039;DHT22;10678;51.002;4.786;2023-04-24T14:00:46;19.50;98.70
21039;DHT22;10678;51.002;4.786;2023-04-24T14:03:12;20.20;99.00
21039;DHT22;10678;51.002;4.786;2023-04-24T14:05:38;19.80;99.50
21039;DHT22;10678;51.002;4.786;2023-04-24T14:08:04;19.60;98.50
21039;DHT22;10678;51.002;4.786;2023-04-24T14:10:30;19.00;99.90
21039;DHT22;10678;51.002;4.786;2023-04-24T14:12:55;18.70;99.90
21039;DHT22;10678;51.002;4.786;2023-04-24T14:15:21;18.10;99.90
21039;DHT22;10678;51.002;4.786;2023-04-24T14:17:47;17.50;99.90
21039;DHT22;10678;51.002;4.786;2023-04-24T14:20:13;17.30;99.90
21039;DHT22;10678;51.002;4.786;2023-04-24T14:22:39;17.40;99.90
21039;DHT22;10678;51.002;4.786;2023-04-24T14:25:06;16.90;99.90
21039;DHT22;10678;51.002;4.786;2023-04-24T14:27:32;16.70;99.90
21039;DHT22;10678;51.002;4.786;2023-04-24T14:30:00;16.70;99.90
21039;DHT22;10678;51.002;4.786;2023-04-24T14:32:25;17.00;99.90
21039;DHT22;10678;51.002;4.786;2023-04-24T14:34:51;17.00;99.90
21039;DHT22;10678;51.002;4.786;2023-04-24T14:37:16;16.70;99.90
21039;DHT22;10678;51.002;4.786;2023-04-24T14:39:42;16.60;99.90
21039;DHT22;10678;51.002;4.786;2023-04-24T14:42:08;16.80;99.90
21039;DHT22;10678;51.002;4.786;2023-04-24T14:44:33;16.80;99.90
21039;DHT22;10678;51.002;4.786;2023-04-24T14:46:59;16.80;99.90
21039;DHT22;10678;51.002;4.786;2023-04-24T14:49:25;16.70;99.90
21039;DHT22;10678;51.002;4.786;2023-04-24T14:51:51;16.80;99.90
21039;DHT22;10678;51.002;4.786;2023-04-24T14:54:17;16.90;99.90
21039;DHT22;10678;51.002;4.786;2023-04-24T14:56:42;16.90;99.90
21039;DHT22;10678;51.002;4.786;2023-04-24T14:59:09;16.90;99.90
21039;DHT22;10678;51.002;4.786;2023-04-24T15:01:35;16.80;99.90
21039;DHT22;10678;51.002;4.786;2023-04-24T15:04:01;16.60;99.90
21039;DHT22;10678;51.002;4.786;2023-04-24T15:06:27;16.40;99.90
21039;DHT22;10678;51.002;4.786;2023-04-24T15:08:53;16.20;99.90
21039;DHT22;10678;51.002;4.786;2023-04-24T15:11:18;16.10;99.90
21039;DHT22;10678;51.002;4.786;2023-04-24T15:13:44;16.20;99.90
21039;DHT22;10678;51.002;4.786;2023-04-24T15:16:12;16.00;99.90
21039;DHT22;10678;51.002;4.786;2023-04-24T15:18:38;15.70;99.90
21039;DHT22;10678;51.002;4.786;2023-04-24T15:21:04;15.50;99.90
21039;DHT22;10678;51.002;4.786;2023-04-24T15:23:29;15.40;99.90
21039;DHT22;10678;51.002;4.786;2023-04-24T15:25:55;15.50;99.90
21039;DHT22;10678;51.002;4.786;2023-04-24T15:28:21;15.60;99.90
21039;DHT22;10678;51.002;4.786;2023-04-24T15:30:47;15.30;99.90
21039;DHT22;10678;51.002;4.786;2023-04-24T15:33:13;15.40;99.90
21039;DHT22;10678;51.002;4.786;2023-04-24T15:35:39;15.40;99.90
21039;DHT22;10678;51.002;4.786;2023-04-24T15:38:06;15.40;99.90